createdAt,value
2022-12-25T00:00:34.039Z,16.90
2022-12-25T00:05:58.857Z,17.70
2022-12-25T00:11:04.964Z,38.30
2022-12-25T00:16:10.324Z,55.20
2022-12-25T00:21:14.312Z,32.40
2022-12-25T00:26:17.825Z,28.50
2022-12-25T00:31:21.398Z,20.30
2022-12-25T00:36:24.538Z,15.90
2022-12-25T00:41:46.263Z,36.00
2022-12-25T00:46:49.090Z,20.50
2022-12-25T00:51:52.789Z,14.20
2022-12-25T00:56:55.537Z,14.00
2022-12-25T01:02:18.674Z,28.80
2022-12-25T01:07:23.907Z,24.20
2022-12-25T01:12:26.748Z,22.30
2022-12-25T01:17:29.484Z,25.30
2022-12-25T01:22:32.176Z,24.40
2022-12-25T01:27:35.468Z,18.40
2022-12-25T01:32:38.503Z,24.20
2022-12-25T01:37:41.306Z,17.20
2022-12-25T01:42:44.501Z,15.60
2022-12-25T01:47:47.505Z,17.70
2022-12-25T01:52:51.719Z,16.10
2022-12-25T01:57:54.815Z,15.30
2022-12-25T02:02:58.674Z,14.30
2022-12-25T02:08:07.935Z,17.30
2022-12-25T02:13:17.055Z,12.50
2022-12-25T02:18:32.929Z,11.70
2022-12-25T02:23:51.052Z,14.20
2022-12-25T02:29:01.951Z,12.00
2022-12-25T02:34:17.530Z,14.00
2022-12-25T02:39:45.279Z,15.90
2022-12-25T02:45:10.135Z,12.40
2022-12-25T02:50:34.581Z,17.50
2022-12-25T02:56:02.047Z,20.70
2022-12-25T03:01:29.290Z,15.40
2022-12-25T03:06:43.954Z,13.20
2022-12-25T03:11:54.771Z,15.40
2022-12-25T03:16:59.861Z,13.50
2022-12-25T03:22:23.698Z,11.90
2022-12-25T03:27:31.797Z,10.70
2022-12-25T03:32:37.527Z,12.60
2022-12-25T03:38:08.070Z,10.80
2022-12-25T03:43:55.659Z,12.60
2022-12-25T03:49:26.250Z,12.40
2022-12-25T03:54:52.120Z,12.90
2022-12-25T04:00:13.572Z,10.10
2022-12-25T04:05:34.912Z,12.10
2022-12-25T04:10:56.167Z,12.50
2022-12-25T04:16:17.364Z,11.50
2022-12-25T04:21:38.923Z,20.60
2022-12-25T04:27:00.443Z,20.00
2022-12-25T04:32:21.992Z,13.10
2022-12-25T04:37:24.727Z,14.60
2022-12-25T04:42:27.459Z,14.10
2022-12-25T04:47:30.204Z,15.90
2022-12-25T04:52:37.692Z,12.80
2022-12-25T04:57:40.471Z,16.30
2022-12-25T05:02:43.388Z,22.70
2022-12-25T05:07:46.414Z,17.20
2022-12-25T05:12:49.178Z,14.90
2022-12-25T05:17:51.938Z,14.00
2022-12-25T05:22:54.686Z,13.60
2022-12-25T05:27:57.496Z,18.40
2022-12-25T05:33:00.558Z,17.40
2022-12-25T05:38:03.980Z,17.80
2022-12-25T05:43:07.030Z,14.90
2022-12-25T05:48:09.942Z,13.60
2022-12-25T05:53:14.778Z,15.20
2022-12-25T05:58:17.538Z,18.30
2022-12-25T06:03:20.347Z,13.80
2022-12-25T06:08:23.211Z,16.50
2022-12-25T06:13:25.938Z,15.80
2022-12-25T06:18:28.699Z,19.00
2022-12-25T06:23:31.723Z,18.10
2022-12-25T06:28:34.986Z,15.70
2022-12-25T06:33:38.407Z,24.40
2022-12-25T06:38:41.809Z,17.80
2022-12-25T06:43:49.342Z,25.70
2022-12-25T06:48:53.688Z,22.80
2022-12-25T06:53:57.441Z,25.90
2022-12-25T06:59:09.159Z,22.10
2022-12-25T07:04:21.250Z,23.70
2022-12-25T07:09:24.202Z,22.60
2022-12-25T07:14:26.938Z,23.70
2022-12-25T07:19:29.704Z,33.30
2022-12-25T07:24:32.504Z,24.20
2022-12-25T07:29:35.278Z,28.10
2022-12-25T07:34:38.021Z,29.90
2022-12-25T07:39:40.837Z,41.90
2022-12-25T07:44:43.931Z,36.60
2022-12-25T07:49:46.722Z,52.30
2022-12-25T07:54:49.477Z,70.10
2022-12-25T07:59:52.241Z,41.60
2022-12-25T08:04:55.440Z,31.50
2022-12-25T08:09:58.178Z,29.90
2022-12-25T08:15:00.927Z,28.20
2022-12-25T08:20:04.140Z,29.80
2022-12-25T08:25:07.288Z,29.90
2022-12-25T08:30:10.316Z,31.70
2022-12-25T08:35:13.284Z,27.60
2022-12-25T08:40:16.182Z,24.60
2022-12-25T08:45:18.977Z,26.20
2022-12-25T08:50:25.704Z,28.70
2022-12-25T08:55:28.603Z,30.10
2022-12-25T09:00:31.873Z,48.80
2022-12-25T09:05:36.332Z,58.50
2022-12-25T09:10:39.075Z,35.00
2022-12-25T09:15:42.022Z,43.60
2022-12-25T09:20:44.804Z,36.80
2022-12-25T09:25:47.578Z,40.70
2022-12-25T09:30:52.298Z,29.70
2022-12-25T09:35:58.099Z,25.10
2022-12-25T09:41:22.957Z,23.30
2022-12-25T09:46:34.796Z,23.10
2022-12-25T09:51:42.303Z,24.90
2022-12-25T09:56:45.074Z,18.60
2022-12-25T10:02:11.985Z,16.40
2022-12-25T10:07:48.639Z,19.40
2022-12-25T10:13:01.006Z,15.70
2022-12-25T10:18:31.291Z,20.80
2022-12-25T10:23:41.061Z,38.40
2022-12-25T10:28:47.070Z,33.30
2022-12-25T10:33:52.850Z,13.10
2022-12-25T10:38:56.403Z,15.10
2022-12-25T10:43:59.260Z,35.60
2022-12-25T10:49:03.932Z,32.00
2022-12-25T10:54:35.201Z,41.50
2022-12-25T10:59:44.310Z,32.00
2022-12-25T11:04:48.136Z,25.00
2022-12-25T11:10:05.614Z,28.10
2022-12-25T11:15:37.242Z,21.40
2022-12-25T11:20:49.652Z,15.60
2022-12-25T11:26:07.285Z,18.70
2022-12-25T11:31:15.467Z,21.60
2022-12-25T11:36:26.813Z,39.10
2022-12-25T11:41:34.422Z,27.90
2022-12-25T11:46:48.679Z,23.10
2022-12-25T11:51:55.654Z,19.40
2022-12-25T11:57:03.530Z,18.50
2022-12-25T12:02:23.153Z,27.60
2022-12-25T12:07:32.278Z,24.50
2022-12-25T12:12:49.232Z,27.80
2022-12-25T12:17:53.270Z,24.40
2022-12-25T12:22:56.844Z,33.20
2022-12-25T12:28:05.644Z,22.00
2022-12-25T12:33:20.742Z,28.30
2022-12-25T12:38:24.966Z,20.60
2022-12-25T12:43:34.401Z,24.70
2022-12-25T12:48:41.413Z,20.50
2022-12-25T12:53:44.822Z,18.00
2022-12-25T12:58:50.981Z,23.50
2022-12-25T13:03:59.745Z,26.40
2022-12-25T13:09:33.655Z,20.90
2022-12-25T13:14:38.115Z,24.20
2022-12-25T13:19:43.029Z,43.70
2022-12-25T13:24:56.275Z,38.50
2022-12-25T13:29:59.617Z,35.60
2022-12-25T13:35:02.502Z,33.80
2022-12-25T13:40:26.159Z,33.30
2022-12-25T13:45:31.002Z,38.70
2022-12-25T13:50:35.173Z,31.20
2022-12-25T13:55:38.097Z,35.20
2022-12-25T14:00:48.113Z,31.40
2022-12-25T14:06:01.760Z,31.90
2022-12-25T14:11:06.567Z,41.90
2022-12-25T14:16:10.310Z,60.90
2022-12-25T14:21:22.899Z,41.70
2022-12-25T14:26:29.594Z,26.90
2022-12-25T14:31:34.301Z,25.80
2022-12-25T14:36:37.953Z,41.70
2022-12-25T14:41:42.290Z,51.90
2022-12-25T14:46:45.150Z,48.50
2022-12-25T14:51:48.032Z,66.60
2022-12-25T14:56:55.943Z,45.90
2022-12-25T15:02:03.560Z,52.00
2022-12-25T15:07:09.683Z,38.70
2022-12-25T15:12:13.143Z,34.50
2022-12-25T15:17:36.655Z,37.20
2022-12-25T15:23:10.168Z,55.90
2022-12-25T15:28:05.609Z,39.40
2022-12-25T15:33:14.547Z,26.00
2022-12-25T15:38:17.351Z,26.00
2022-12-25T15:43:40.083Z,30.00
2022-12-25T15:48:42.931Z,20.70
2022-12-25T15:53:45.697Z,25.80
2022-12-25T15:58:48.515Z,22.50
2022-12-25T16:03:51.729Z,26.00
2022-12-25T16:08:54.548Z,28.90
2022-12-25T16:13:57.274Z,35.50
2022-12-25T16:19:00.270Z,31.40
2022-12-25T16:24:03.172Z,34.30
2022-12-25T16:29:07.932Z,35.90
2022-12-25T16:34:11.418Z,34.00
2022-12-25T16:39:14.152Z,34.10
2022-12-25T16:44:16.932Z,61.90
2022-12-25T16:49:19.848Z,49.60
2022-12-25T16:54:22.663Z,45.90
2022-12-25T16:59:25.442Z,31.20
2022-12-25T17:04:28.354Z,35.30
2022-12-25T17:09:31.577Z,49.50
2022-12-25T17:14:35.886Z,81.60
2022-12-25T17:19:38.860Z,60.00
2022-12-25T17:24:41.664Z,46.90
2022-12-25T17:29:45.470Z,48.70
2022-12-25T17:34:48.286Z,38.30
2022-12-25T17:39:50.981Z,59.10
2022-12-25T17:44:53.939Z,82.80
2022-12-25T17:49:56.813Z,56.10
2022-12-25T17:54:59.598Z,56.30
2022-12-25T18:00:02.437Z,51.40
2022-12-25T18:05:05.685Z,48.70
2022-12-25T18:10:10.477Z,47.50
2022-12-25T18:15:13.288Z,48.70
2022-12-25T18:20:16.098Z,41.70
2022-12-25T18:25:18.954Z,40.80
2022-12-25T18:30:21.742Z,39.10
2022-12-25T18:35:29.179Z,46.30
2022-12-25T18:40:32.462Z,34.60
2022-12-25T18:45:35.627Z,40.80
2022-12-25T18:50:40.734Z,49.40
2022-12-25T18:55:43.473Z,40.80
2022-12-25T19:00:46.433Z,40.90
2022-12-25T19:05:49.538Z,47.80
2022-12-25T19:10:52.430Z,39.40
2022-12-25T19:15:58.817Z,38.70
2022-12-25T19:21:04.264Z,40.00
2022-12-25T19:26:08.585Z,37.00
2022-12-25T19:31:11.835Z,37.70
2022-12-25T19:36:17.813Z,44.30
2022-12-25T19:41:20.640Z,42.80
2022-12-25T19:46:27.372Z,33.30
2022-12-25T19:51:33.388Z,41.00
2022-12-25T19:56:36.229Z,38.20
2022-12-25T20:01:39.456Z,38.60
2022-12-25T20:06:45.273Z,41.30
2022-12-25T20:11:48.807Z,42.20
2022-12-25T20:16:51.664Z,67.20
2022-12-25T20:21:54.788Z,46.30
2022-12-25T20:26:59.500Z,58.70
2022-12-25T20:32:02.877Z,38.80
2022-12-25T20:37:05.741Z,33.80
2022-12-25T20:42:08.579Z,35.50
2022-12-25T20:47:11.349Z,43.10
2022-12-25T20:52:14.126Z,48.40
2022-12-25T20:57:16.904Z,47.30
2022-12-25T21:02:34.620Z,42.70
2022-12-25T21:07:39.997Z,43.60
2022-12-25T21:12:44.428Z,41.20
2022-12-25T21:17:47.159Z,39.70
2022-12-25T21:22:49.891Z,41.40
2022-12-25T21:27:53.119Z,36.20
2022-12-25T21:33:17.005Z,37.50
2022-12-25T21:38:22.456Z,44.30
2022-12-25T21:43:25.788Z,38.70
2022-12-25T21:48:28.819Z,39.80
2022-12-25T21:53:31.596Z,39.10
2022-12-25T21:58:34.817Z,40.40
2022-12-25T22:03:38.016Z,32.10
2022-12-25T22:08:40.888Z,41.40
2022-12-25T22:14:02.451Z,37.60
2022-12-25T22:19:25.292Z,32.60
2022-12-25T22:24:29.144Z,31.20
2022-12-25T22:29:31.937Z,34.70
2022-12-25T22:34:34.812Z,25.80
2022-12-25T22:39:37.517Z,39.80
2022-12-25T22:44:40.297Z,37.30
2022-12-25T22:49:43.061Z,36.10
2022-12-25T22:54:45.927Z,31.70
2022-12-25T22:59:48.739Z,37.30
2022-12-25T23:04:51.580Z,34.00
2022-12-25T23:09:54.411Z,29.10
2022-12-25T23:14:57.967Z,30.60
2022-12-25T23:20:19.640Z,31.70
2022-12-25T23:25:41.269Z,34.10
2022-12-25T23:30:44.063Z,32.70
2022-12-25T23:35:46.787Z,44.90
2022-12-25T23:40:49.516Z,27.50
2022-12-25T23:45:52.415Z,55.10
2022-12-25T23:50:55.255Z,33.40
2022-12-25T23:55:58.824Z,32.00
